createdAt,value
2022-10-21T00:00:56.270Z,14.90
2022-10-21T00:03:25.656Z,14.90
2022-10-21T00:05:55.349Z,14.90
2022-10-21T00:08:23.972Z,14.90
2022-10-21T00:10:52.914Z,14.80
2022-10-21T00:13:20.903Z,14.80
2022-10-21T00:16:00.051Z,14.80
2022-10-21T00:18:28.330Z,14.80
2022-10-21T00:20:57.832Z,14.80
2022-10-21T00:23:26.437Z,14.80
2022-10-21T00:25:57.914Z,14.80
2022-10-21T00:28:26.122Z,14.80
2022-10-21T00:30:54.119Z,14.80
2022-10-21T00:33:22.264Z,14.80
2022-10-21T00:35:53.562Z,14.80
2022-10-21T00:38:23.203Z,14.90
2022-10-21T00:40:51.235Z,14.80
2022-10-21T00:43:19.554Z,14.80
2022-10-21T00:45:49.881Z,14.80
2022-10-21T00:48:25.262Z,14.80
2022-10-21T00:50:56.321Z,14.80
2022-10-21T00:53:26.365Z,14.70
2022-10-21T00:55:57.379Z,14.70
2022-10-21T00:58:29.414Z,14.70
2022-10-21T01:00:58.861Z,14.60
2022-10-21T01:03:29.033Z,14.60
2022-10-21T01:05:59.646Z,14.50
2022-10-21T01:08:29.578Z,14.50
2022-10-21T01:10:57.866Z,14.50
2022-10-21T01:13:32.193Z,14.40
2022-10-21T01:16:10.703Z,14.40
2022-10-21T01:18:47.496Z,14.40
2022-10-21T01:21:29.186Z,14.40
2022-10-21T01:24:22.129Z,14.40
2022-10-21T01:27:12.730Z,14.40
2022-10-21T01:30:15.239Z,14.40
2022-10-21T01:33:05.028Z,14.40
2022-10-21T01:35:39.622Z,14.40
2022-10-21T01:38:14.741Z,14.30
2022-10-21T01:40:48.886Z,14.30
2022-10-21T01:43:20.469Z,14.40
2022-10-21T01:45:52.561Z,14.30
2022-10-21T01:48:25.115Z,14.40
2022-10-21T01:50:56.287Z,14.40
2022-10-21T01:53:29.490Z,14.40
2022-10-21T01:55:59.952Z,14.40
2022-10-21T01:58:31.142Z,14.50
2022-10-21T02:01:02.435Z,14.50
2022-10-21T02:03:35.754Z,14.50
2022-10-21T02:06:03.871Z,14.50
2022-10-21T02:08:31.901Z,14.50
2022-10-21T02:11:02.461Z,14.50
2022-10-21T02:13:35.486Z,14.50
2022-10-21T02:16:06.401Z,14.50
2022-10-21T02:18:35.931Z,14.50
2022-10-21T02:21:07.028Z,14.50
2022-10-21T02:23:42.574Z,14.50
2022-10-21T02:26:11.239Z,14.50
2022-10-21T02:31:28.784Z,14.50
2022-10-21T02:34:06.397Z,14.50
2022-10-21T02:36:43.970Z,14.50
2022-10-21T02:39:20.558Z,14.50
2022-10-21T02:41:50.372Z,14.50
2022-10-21T02:44:18.494Z,14.50
2022-10-21T02:46:49.077Z,14.40
2022-10-21T02:49:18.468Z,14.50
2022-10-21T02:51:46.733Z,14.50
2022-10-21T02:54:14.892Z,14.50
2022-10-21T02:56:42.965Z,14.50
2022-10-21T02:59:10.995Z,14.40
2022-10-21T03:01:38.967Z,14.50
2022-10-21T03:04:07.000Z,14.40
2022-10-21T03:06:36.375Z,14.40
2022-10-21T03:09:05.334Z,14.40
2022-10-21T03:11:33.358Z,14.40
2022-10-21T03:14:01.358Z,14.40
2022-10-21T03:16:29.328Z,14.40
2022-10-21T03:18:57.260Z,14.40
2022-10-21T03:21:25.227Z,14.40
2022-10-21T03:23:54.526Z,14.40
2022-10-21T03:26:22.473Z,14.40
2022-10-21T03:28:50.425Z,14.40
2022-10-21T03:31:18.391Z,14.40
2022-10-21T03:33:46.335Z,14.40
2022-10-21T03:36:14.329Z,14.30
2022-10-21T03:38:42.298Z,14.30
2022-10-21T03:41:11.659Z,14.30
2022-10-21T03:43:39.652Z,14.30
2022-10-21T03:46:07.728Z,14.30
2022-10-21T03:48:35.670Z,14.30
2022-10-21T03:51:03.643Z,14.30
2022-10-21T03:53:42.738Z,14.30
2022-10-21T03:56:13.581Z,14.30
2022-10-21T03:58:42.053Z,14.30
2022-10-21T04:01:12.914Z,14.30
2022-10-21T04:03:40.987Z,14.30
2022-10-21T04:06:09.143Z,14.30
2022-10-21T04:08:37.221Z,14.30
2022-10-21T04:11:05.401Z,14.40
2022-10-21T04:13:34.848Z,14.40
2022-10-21T04:16:05.121Z,14.40
2022-10-21T04:18:34.384Z,14.40
2022-10-21T04:21:02.413Z,14.50
2022-10-21T04:23:30.399Z,14.50
2022-10-21T04:25:58.369Z,14.50
2022-10-21T04:28:26.541Z,14.50
2022-10-21T04:30:56.007Z,14.50
2022-10-21T04:33:24.101Z,14.50
2022-10-21T04:35:52.084Z,14.60
2022-10-21T04:38:20.149Z,14.60
2022-10-21T04:40:48.322Z,14.60
2022-10-21T04:43:16.302Z,14.60
2022-10-21T04:45:44.238Z,14.60
2022-10-21T04:48:13.684Z,14.60
2022-10-21T04:50:41.665Z,14.60
2022-10-21T04:53:09.754Z,14.60
2022-10-21T04:55:40.000Z,14.60
2022-10-21T04:58:08.244Z,14.70
2022-10-21T05:00:36.262Z,14.70
2022-10-21T05:03:04.933Z,14.70
2022-10-21T05:05:34.266Z,14.70
2022-10-21T05:08:02.315Z,14.80
2022-10-21T05:10:31.044Z,14.80
2022-10-21T05:12:59.213Z,14.80
2022-10-21T05:15:27.517Z,14.80
2022-10-21T05:17:55.570Z,14.80
2022-10-21T05:20:23.601Z,14.80
2022-10-21T05:22:53.584Z,14.80
2022-10-21T05:25:23.612Z,14.80
2022-10-21T05:27:52.211Z,14.80
2022-10-21T05:30:20.263Z,14.80
2022-10-21T05:32:48.220Z,14.80
2022-10-21T05:35:16.322Z,14.80
2022-10-21T05:37:45.355Z,14.80
2022-10-21T05:40:14.922Z,14.80
2022-10-21T05:42:42.958Z,14.90
2022-10-21T05:45:11.925Z,14.90
2022-10-21T05:47:41.253Z,14.90
2022-10-21T05:50:10.437Z,14.90
2022-10-21T05:52:38.765Z,14.90
2022-10-21T05:55:08.160Z,15.00
2022-10-21T05:57:39.230Z,14.90
2022-10-21T06:00:08.971Z,15.00
2022-10-21T06:02:37.910Z,15.00
2022-10-21T06:05:06.573Z,15.00
2022-10-21T06:07:34.677Z,15.00
2022-10-21T06:10:02.867Z,15.00
2022-10-21T06:12:30.851Z,15.00
2022-10-21T06:15:00.197Z,15.00
2022-10-21T06:17:28.219Z,15.00
2022-10-21T06:19:56.198Z,15.00
2022-10-21T06:22:24.178Z,15.00
2022-10-21T06:24:52.298Z,15.00
2022-10-21T06:27:20.341Z,15.00
2022-10-21T06:29:48.325Z,15.00
2022-10-21T06:32:17.637Z,15.00
2022-10-21T06:34:45.647Z,15.00
2022-10-21T06:37:13.615Z,15.00
2022-10-21T06:39:41.587Z,15.00
2022-10-21T06:42:09.498Z,15.10
2022-10-21T06:44:46.959Z,15.10
2022-10-21T06:47:14.983Z,15.20
2022-10-21T06:49:44.278Z,15.20
2022-10-21T06:52:12.313Z,15.20
2022-10-21T06:54:40.343Z,15.20
2022-10-21T06:57:08.354Z,15.20
2022-10-21T06:59:36.290Z,15.20
2022-10-21T07:02:04.259Z,15.30
2022-10-21T07:04:32.234Z,15.20
2022-10-21T07:07:01.605Z,15.30
2022-10-21T07:09:30.688Z,15.30
2022-10-21T07:11:58.762Z,15.30
2022-10-21T07:14:26.752Z,15.30
2022-10-21T07:16:56.530Z,15.30
2022-10-21T07:19:24.480Z,15.40
2022-10-21T07:21:52.504Z,15.40
2022-10-21T07:24:22.791Z,15.40
2022-10-21T07:26:51.199Z,15.40
2022-10-21T07:29:19.820Z,15.40
2022-10-21T07:31:47.886Z,15.40
2022-10-21T07:34:16.161Z,15.50
2022-10-21T07:36:47.880Z,15.50
2022-10-21T07:39:17.950Z,15.50
2022-10-21T07:41:49.388Z,15.50
2022-10-21T07:44:18.102Z,15.50
2022-10-21T07:46:46.690Z,15.50
2022-10-21T07:49:15.913Z,15.50
2022-10-21T07:51:45.941Z,15.50
2022-10-21T07:54:15.278Z,15.60
2022-10-21T07:56:45.363Z,15.60
2022-10-21T07:59:16.921Z,15.60
2022-10-21T08:01:47.325Z,15.60
2022-10-21T08:04:18.223Z,15.60
2022-10-21T08:06:47.617Z,15.60
2022-10-21T08:09:16.185Z,15.60
2022-10-21T08:11:44.462Z,15.60
2022-10-21T08:14:14.253Z,15.60
2022-10-21T08:16:43.034Z,15.60
2022-10-21T08:19:18.394Z,15.60
2022-10-21T08:21:46.465Z,15.60
2022-10-21T08:24:14.630Z,15.60
2022-10-21T08:26:42.768Z,15.60
2022-10-21T08:29:10.890Z,15.60
2022-10-21T08:31:40.760Z,15.60
2022-10-21T08:34:08.811Z,15.60
2022-10-21T08:36:38.471Z,15.60
2022-10-21T08:39:07.072Z,15.50
2022-10-21T08:41:54.283Z,15.60
2022-10-21T08:44:31.385Z,15.60
2022-10-21T08:47:06.814Z,15.60
2022-10-21T08:49:49.050Z,15.60
2022-10-21T08:52:21.930Z,15.60
2022-10-21T08:54:55.987Z,15.60
2022-10-21T08:57:24.484Z,15.60
2022-10-21T08:59:52.558Z,15.50
2022-10-21T09:02:34.128Z,15.60
2022-10-21T09:05:20.470Z,15.50
2022-10-21T09:07:56.164Z,15.60
2022-10-21T09:10:31.998Z,15.60
2022-10-21T09:13:08.143Z,15.60
2022-10-21T09:15:49.663Z,15.60
2022-10-21T09:18:32.102Z,15.60
2022-10-21T09:21:08.822Z,15.60
2022-10-21T09:23:51.732Z,15.60
2022-10-21T09:26:34.870Z,15.60
2022-10-21T09:29:09.256Z,15.60
2022-10-21T09:31:37.526Z,15.50
2022-10-21T09:34:15.352Z,15.50
2022-10-21T09:36:48.608Z,15.50
2022-10-21T09:39:21.130Z,15.60
2022-10-21T09:41:56.867Z,15.60
2022-10-21T09:44:27.419Z,15.60
2022-10-21T09:46:55.780Z,15.60
2022-10-21T09:52:21.785Z,15.60
2022-10-21T09:54:50.401Z,15.60
2022-10-21T09:57:24.523Z,15.70
2022-10-21T09:59:57.354Z,15.70
2022-10-21T10:02:31.331Z,15.70
2022-10-21T10:05:00.803Z,15.70
2022-10-21T10:07:34.374Z,15.80
2022-10-21T10:10:03.489Z,15.80
2022-10-21T10:12:31.746Z,15.80
2022-10-21T10:15:26.898Z,15.90
2022-10-21T10:17:58.336Z,15.90
2022-10-21T10:20:27.959Z,15.90
2022-10-21T10:23:17.351Z,15.90
2022-10-21T10:25:51.901Z,16.00
2022-10-21T10:28:26.551Z,16.00
2022-10-21T10:30:57.004Z,16.10
2022-10-21T10:33:27.708Z,16.00
2022-10-21T10:35:59.150Z,16.00
2022-10-21T10:38:30.789Z,16.00
2022-10-21T10:41:06.382Z,16.00
2022-10-21T10:43:36.127Z,16.00
2022-10-21T10:46:06.212Z,16.00
2022-10-21T10:48:39.470Z,16.00
2022-10-21T10:51:26.044Z,16.00
2022-10-21T10:54:01.783Z,16.00
2022-10-21T10:56:33.100Z,16.00
2022-10-21T10:59:12.139Z,16.00
2022-10-21T11:01:51.082Z,16.00
2022-10-21T11:04:26.433Z,16.10
2022-10-21T11:07:04.215Z,16.10
2022-10-21T11:09:35.130Z,16.10
2022-10-21T11:12:07.254Z,16.00
2022-10-21T11:14:35.592Z,16.10
2022-10-21T11:17:10.476Z,16.10
2022-10-21T11:19:47.011Z,16.10
2022-10-21T11:22:25.647Z,16.20
2022-10-21T11:25:03.017Z,16.20
2022-10-21T11:27:54.185Z,16.20
2022-10-21T11:30:24.154Z,16.30
2022-10-21T11:33:05.767Z,16.40
2022-10-21T11:35:45.566Z,16.50
2022-10-21T11:38:39.591Z,16.60
2022-10-21T11:41:24.198Z,16.80
2022-10-21T11:44:05.046Z,16.80
2022-10-21T11:46:41.431Z,16.90
2022-10-21T11:49:23.495Z,17.00
2022-10-21T11:52:04.355Z,17.00
2022-10-21T11:55:09.483Z,17.10
2022-10-21T11:57:45.942Z,17.20
2022-10-21T12:00:19.269Z,17.30
2022-10-21T12:03:00.515Z,17.50
2022-10-21T12:05:32.746Z,17.60
2022-10-21T12:08:11.821Z,17.80
2022-10-21T12:10:47.616Z,17.80
2022-10-21T12:13:21.497Z,17.80
2022-10-21T12:15:52.838Z,17.80
2022-10-21T12:18:23.036Z,17.80
2022-10-21T12:20:54.742Z,17.80
2022-10-21T12:23:25.214Z,17.90
2022-10-21T12:26:10.124Z,17.90
2022-10-21T12:28:42.164Z,18.00
2022-10-21T12:31:28.406Z,18.10
2022-10-21T12:33:57.133Z,18.10
2022-10-21T12:36:43.525Z,18.20
2022-10-21T12:39:17.476Z,18.30
2022-10-21T12:41:47.866Z,18.60
2022-10-21T12:44:23.136Z,18.90
2022-10-21T12:46:53.796Z,19.10
2022-10-21T12:49:32.592Z,19.30
2022-10-21T12:52:09.431Z,19.30
2022-10-21T12:54:44.341Z,19.30
2022-10-21T12:57:26.758Z,19.30
2022-10-21T13:00:16.714Z,19.20
2022-10-21T13:03:02.931Z,19.30
2022-10-21T13:06:03.177Z,19.30
2022-10-21T13:08:40.487Z,19.20
2022-10-21T13:11:37.657Z,19.20
2022-10-21T13:14:35.244Z,19.20
2022-10-21T13:17:34.387Z,19.10
2022-10-21T13:20:45.676Z,19.10
2022-10-21T13:23:38.552Z,19.10
2022-10-21T13:26:25.474Z,19.20
2022-10-21T13:29:26.187Z,19.20
2022-10-21T13:32:27.015Z,19.30
2022-10-21T13:35:04.079Z,19.50
2022-10-21T13:37:36.036Z,19.50
2022-10-21T13:40:07.193Z,19.40
2022-10-21T13:42:41.326Z,19.30
2022-10-21T13:45:22.696Z,19.10
2022-10-21T13:48:07.388Z,19.10
2022-10-21T13:50:40.479Z,19.20
2022-10-21T13:53:31.901Z,19.40
2022-10-21T13:56:03.405Z,20.20
2022-10-21T13:58:38.887Z,21.00
2022-10-21T14:01:13.137Z,21.30
2022-10-21T14:03:43.900Z,21.10
2022-10-21T14:06:16.194Z,20.90
2022-10-21T14:08:47.255Z,20.90
2022-10-21T14:11:19.618Z,20.90
2022-10-21T14:13:49.702Z,20.70
2022-10-21T14:16:23.932Z,20.30
2022-10-21T14:18:55.008Z,20.00
2022-10-21T14:21:26.895Z,19.80
2022-10-21T14:23:54.926Z,19.70
2022-10-21T14:26:23.221Z,19.60
2022-10-21T14:28:51.917Z,19.60
2022-10-21T14:31:20.458Z,19.60
2022-10-21T14:33:49.625Z,19.50
2022-10-21T14:36:22.597Z,19.50
2022-10-21T14:38:58.674Z,19.40
2022-10-21T14:41:30.495Z,19.20
2022-10-21T14:44:05.864Z,19.10
2022-10-21T14:46:42.588Z,19.10
2022-10-21T14:49:21.924Z,19.10
2022-10-21T14:51:58.998Z,19.10
2022-10-21T14:54:33.251Z,19.10
2022-10-21T14:57:03.894Z,19.10
2022-10-21T14:59:38.243Z,19.00
2022-10-21T15:02:15.517Z,19.00
2022-10-21T15:04:51.467Z,19.00
2022-10-21T15:07:29.625Z,19.00
2022-10-21T15:10:13.296Z,19.00
2022-10-21T15:12:43.347Z,19.00
2022-10-21T15:15:43.983Z,19.00
2022-10-21T15:18:17.450Z,19.10
2022-10-21T15:20:54.473Z,19.30
2022-10-21T15:23:27.857Z,19.30
2022-10-21T15:26:00.661Z,19.40
2022-10-21T15:28:31.578Z,19.50
2022-10-21T15:31:00.576Z,19.50
2022-10-21T15:33:28.580Z,19.60
2022-10-21T15:36:04.722Z,19.60
2022-10-21T15:38:34.123Z,19.50
2022-10-21T15:41:02.517Z,19.30
2022-10-21T15:43:30.586Z,19.20
2022-10-21T15:45:58.733Z,19.10
2022-10-21T15:48:28.145Z,19.00
2022-10-21T15:50:57.818Z,18.80
2022-10-21T15:53:26.260Z,18.80
2022-10-21T15:55:56.254Z,18.70
2022-10-21T15:58:24.344Z,18.60
2022-10-21T16:00:53.401Z,18.50
2022-10-21T16:03:22.912Z,18.50
2022-10-21T16:05:51.627Z,18.30
2022-10-21T16:08:19.973Z,18.30
2022-10-21T16:10:49.995Z,18.20
2022-10-21T16:13:19.750Z,18.20
2022-10-21T16:15:48.080Z,18.10
2022-10-21T16:18:16.993Z,18.10
2022-10-21T16:20:45.323Z,18.00
2022-10-21T16:23:13.544Z,18.00
2022-10-21T16:25:41.667Z,18.00
2022-10-21T16:28:13.324Z,17.90
2022-10-21T16:30:42.794Z,17.80
2022-10-21T16:33:11.275Z,17.80
2022-10-21T16:35:39.560Z,17.80
2022-10-21T16:38:07.651Z,17.80
2022-10-21T16:40:36.526Z,17.70
2022-10-21T16:43:04.630Z,17.70
2022-10-21T16:45:33.855Z,17.70
2022-10-21T16:48:06.901Z,17.60
2022-10-21T16:50:39.723Z,17.60
2022-10-21T16:53:08.162Z,17.50
2022-10-21T16:55:36.155Z,17.50
2022-10-21T16:58:04.184Z,17.50
2022-10-21T17:00:32.472Z,17.40
2022-10-21T17:03:01.317Z,17.40
2022-10-21T17:08:06.314Z,17.30
2022-10-21T17:10:34.344Z,17.20
2022-10-21T17:13:04.518Z,17.20
2022-10-21T17:15:32.481Z,17.10
2022-10-21T17:18:00.516Z,17.10
2022-10-21T17:20:30.685Z,17.00
2022-10-21T17:22:59.673Z,17.00
2022-10-21T17:25:29.613Z,16.90
2022-10-21T17:27:58.442Z,16.90
2022-10-21T17:30:26.778Z,16.90
2022-10-21T17:32:54.835Z,16.80
2022-10-21T17:35:23.188Z,16.80
2022-10-21T17:37:52.975Z,16.80
2022-10-21T17:40:23.089Z,16.80
2022-10-21T17:42:51.485Z,16.80
2022-10-21T17:45:21.044Z,16.80
2022-10-21T17:47:49.710Z,16.70
2022-10-21T17:50:23.420Z,16.70
2022-10-21T17:52:53.526Z,16.70
2022-10-21T17:55:22.007Z,16.70
2022-10-21T17:57:50.073Z,16.60
2022-10-21T18:00:18.357Z,16.60
2022-10-21T18:02:46.430Z,16.50
2022-10-21T18:05:14.485Z,16.50
2022-10-21T18:07:42.571Z,16.50
2022-10-21T18:10:14.371Z,16.40
2022-10-21T18:12:42.581Z,16.40
2022-10-21T18:15:11.431Z,16.40
2022-10-21T18:17:40.119Z,16.40
2022-10-21T18:20:09.817Z,16.40
2022-10-21T18:22:38.125Z,16.30
2022-10-21T18:25:07.094Z,16.30
2022-10-21T18:27:37.412Z,16.30
2022-10-21T18:30:06.613Z,16.30
2022-10-21T18:32:34.720Z,16.20
2022-10-21T18:35:04.094Z,16.20
2022-10-21T18:37:33.922Z,16.20
2022-10-21T18:40:03.832Z,16.20
2022-10-21T18:42:31.998Z,16.20
2022-10-21T18:45:01.399Z,16.20
2022-10-21T18:47:29.417Z,16.20
2022-10-21T18:49:57.513Z,16.20
2022-10-21T18:52:25.696Z,16.20
2022-10-21T18:54:53.701Z,16.20
2022-10-21T18:57:21.684Z,16.10
2022-10-21T18:59:49.644Z,16.10
2022-10-21T19:02:21.751Z,16.10
2022-10-21T19:04:50.265Z,16.10
2022-10-21T19:07:18.996Z,16.10
2022-10-21T19:09:47.760Z,16.10
2022-10-21T19:12:19.671Z,16.10
2022-10-21T19:14:50.626Z,16.00
2022-10-21T19:17:20.112Z,16.00
2022-10-21T19:19:48.162Z,16.00
2022-10-21T19:22:17.331Z,15.90
2022-10-21T19:24:45.399Z,15.90
2022-10-21T19:27:13.567Z,15.90
2022-10-21T19:29:43.302Z,15.90
2022-10-21T19:32:12.883Z,15.80
2022-10-21T19:34:42.347Z,15.80
2022-10-21T19:37:10.617Z,15.80
2022-10-21T19:39:38.643Z,15.80
2022-10-21T19:42:06.707Z,15.80
2022-10-21T19:44:34.771Z,15.80
2022-10-21T19:47:02.792Z,15.70
2022-10-21T19:49:30.873Z,15.70
2022-10-21T19:52:00.233Z,15.60
2022-10-21T19:54:28.386Z,15.60
2022-10-21T19:56:56.735Z,15.60
2022-10-21T19:59:24.920Z,15.60
2022-10-21T20:01:53.046Z,15.60
2022-10-21T20:04:21.052Z,15.60
2022-10-21T20:06:49.068Z,15.70
2022-10-21T20:09:18.390Z,15.60
2022-10-21T20:11:46.353Z,15.60
2022-10-21T20:14:14.581Z,15.70
2022-10-21T20:16:43.754Z,15.70
2022-10-21T20:19:13.449Z,15.70
2022-10-21T20:21:42.599Z,15.60
2022-10-21T20:24:14.285Z,15.60
2022-10-21T20:26:45.467Z,15.60
2022-10-21T20:29:15.351Z,15.60
2022-10-21T20:31:43.463Z,15.60
2022-10-21T20:34:12.763Z,15.60
2022-10-21T20:36:41.367Z,15.70
2022-10-21T20:39:10.377Z,15.60
2022-10-21T20:41:38.793Z,15.60
2022-10-21T20:44:11.343Z,15.50
2022-10-21T20:46:39.450Z,15.60
2022-10-21T20:49:08.178Z,15.60
2022-10-21T20:51:38.364Z,15.60
2022-10-21T20:54:09.219Z,15.60
2022-10-21T20:56:39.438Z,15.70
2022-10-21T20:59:10.471Z,15.70
2022-10-21T21:01:42.067Z,15.70
2022-10-21T21:04:12.311Z,15.60
2022-10-21T21:06:42.701Z,15.60
2022-10-21T21:12:02.804Z,15.50
2022-10-21T21:14:32.721Z,15.50
2022-10-21T21:17:00.867Z,15.40
2022-10-21T21:19:28.963Z,15.40
2022-10-21T21:21:57.091Z,15.40
2022-10-21T21:24:25.140Z,15.40
2022-10-21T21:26:53.182Z,15.40
2022-10-21T21:29:21.309Z,15.40
2022-10-21T21:31:51.019Z,15.50
2022-10-21T21:34:19.106Z,15.40
2022-10-21T21:36:47.098Z,15.50
2022-10-21T21:41:48.562Z,15.50
2022-10-21T21:44:16.687Z,15.40
2022-10-21T21:46:44.835Z,15.50
2022-10-21T21:49:14.248Z,15.40
2022-10-21T21:51:42.364Z,15.40
2022-10-21T21:54:10.529Z,15.40
2022-10-21T21:56:38.559Z,15.40
2022-10-21T21:59:06.706Z,15.40
2022-10-21T22:01:35.064Z,15.40
2022-10-21T22:04:03.532Z,15.40
2022-10-21T22:06:35.756Z,15.40
2022-10-21T22:09:09.830Z,15.30
2022-10-21T22:11:38.416Z,15.30
2022-10-21T22:14:06.463Z,15.30
2022-10-21T22:16:34.753Z,15.30
2022-10-21T22:19:03.351Z,15.20
2022-10-21T22:21:33.645Z,15.20
2022-10-21T22:24:01.731Z,15.20
2022-10-21T22:26:29.941Z,15.20
2022-10-21T22:28:58.077Z,15.20
2022-10-21T22:31:29.425Z,15.10
2022-10-21T22:33:59.820Z,15.20
2022-10-21T22:36:27.880Z,15.20
2022-10-21T22:38:57.285Z,15.10
2022-10-21T22:41:25.275Z,15.10
2022-10-21T22:43:53.285Z,15.10
2022-10-21T22:46:32.984Z,15.10
2022-10-21T22:49:02.545Z,15.10
2022-10-21T22:51:30.529Z,15.10
2022-10-21T22:53:59.901Z,15.10
2022-10-21T22:56:28.647Z,15.00
2022-10-21T22:58:57.419Z,15.10
2022-10-21T23:01:28.740Z,15.10
2022-10-21T23:03:57.117Z,15.10
2022-10-21T23:06:25.236Z,15.10
2022-10-21T23:08:53.282Z,15.10
2022-10-21T23:11:22.689Z,15.10
2022-10-21T23:14:02.262Z,15.10
2022-10-21T23:16:32.052Z,15.20
2022-10-21T23:19:00.220Z,15.20
2022-10-21T23:21:28.775Z,15.30
2022-10-21T23:23:56.951Z,15.30
2022-10-21T23:26:26.574Z,15.40
2022-10-21T23:28:54.648Z,15.40
2022-10-21T23:31:22.648Z,15.50
2022-10-21T23:33:50.661Z,15.50
2022-10-21T23:36:18.723Z,15.50
2022-10-21T23:38:46.756Z,15.50
2022-10-21T23:41:14.877Z,15.50
2022-10-21T23:43:44.511Z,15.40
2022-10-21T23:46:12.563Z,15.40
2022-10-21T23:48:40.648Z,15.40
2022-10-21T23:51:08.820Z,15.30
2022-10-21T23:53:36.990Z,15.40
2022-10-21T23:56:06.077Z,15.40
2022-10-21T23:58:34.170Z,15.40
